sensor_id;sensor_type;location;lat;lon;timestamp;P1;durP1;ratioP1;P2;durP2;ratioP2
9256;SDS011;4665;51.368;6.782;2023-04-22T00:00:59;7.07;;;6.47;;
9256;SDS011;4665;51.368;6.782;2023-04-22T00:03:25;6.90;;;6.30;;
9256;SDS011;4665;51.368;6.782;2023-04-22T00:05:51;7.37;;;6.57;;
9256;SDS011;4665;51.368;6.782;2023-04-22T00:08:17;7.07;;;6.47;;
9256;SDS011;4665;51.368;6.782;2023-04-22T00:10:42;7.77;;;7.07;;
9256;SDS011;4665;51.368;6.782;2023-04-22T00:13:08;7.80;;;7.00;;
9256;SDS011;4665;51.368;6.782;2023-04-22T00:15:33;8.47;;;7.57;;
9256;SDS011;4665;51.368;6.782;2023-04-22T00:17:58;6.57;;;5.97;;
9256;SDS011;4665;51.368;6.782;2023-04-22T00:20:24;7.87;;;7.17;;
9256;SDS011;4665;51.368;6.782;2023-04-22T00:22:49;8.10;;;7.27;;
9256;SDS011;4665;51.368;6.782;2023-04-22T00:25:15;8.57;;;7.77;;
9256;SDS011;4665;51.368;6.782;2023-04-22T00:27:41;7.43;;;6.83;;
9256;SDS011;4665;51.368;6.782;2023-04-22T00:30:06;7.80;;;7.00;;
9256;SDS011;4665;51.368;6.782;2023-04-22T00:32:32;8.50;;;7.70;;
9256;SDS011;4665;51.368;6.782;2023-04-22T00:34:57;7.13;;;6.43;;
9256;SDS011;4665;51.368;6.782;2023-04-22T00:37:23;7.23;;;6.13;;
9256;SDS011;4665;51.368;6.782;2023-04-22T00:39:49;7.27;;;6.57;;
9256;SDS011;4665;51.368;6.782;2023-04-22T00:42:15;7.60;;;6.27;;
9256;SDS011;4665;51.368;6.782;2023-04-22T00:44:41;7.60;;;6.90;;
9256;SDS011;4665;51.368;6.782;2023-04-22T00:47:10;8.00;;;7.30;;
9256;SDS011;4665;51.368;6.782;2023-04-22T00:49:36;7.07;;;6.33;;
9256;SDS011;4665;51.368;6.782;2023-04-22T00:52:02;6.43;;;5.90;;
9256;SDS011;4665;51.368;6.782;2023-04-22T00:54:28;6.67;;;6.17;;
9256;SDS011;4665;51.368;6.782;2023-04-22T00:56:56;7.80;;;7.10;;
9256;SDS011;4665;51.368;6.782;2023-04-22T00:59:23;8.60;;;7.80;;
9256;SDS011;4665;51.368;6.782;2023-04-22T01:01:50;8.07;;;7.27;;
9256;SDS011;4665;51.368;6.782;2023-04-22T01:04:16;8.17;;;7.47;;
9256;SDS011;4665;51.368;6.782;2023-04-22T01:06:42;6.97;;;6.37;;
9256;SDS011;4665;51.368;6.782;2023-04-22T01:09:08;7.03;;;6.40;;
9256;SDS011;4665;51.368;6.782;2023-04-22T01:11:34;7.03;;;6.33;;
9256;SDS011;4665;51.368;6.782;2023-04-22T01:14:00;7.43;;;6.70;;
9256;SDS011;4665;51.368;6.782;2023-04-22T01:16:26;7.40;;;6.70;;
9256;SDS011;4665;51.368;6.782;2023-04-22T01:18:53;7.13;;;6.43;;
9256;SDS011;4665;51.368;6.782;2023-04-22T01:21:20;6.77;;;6.17;;
9256;SDS011;4665;51.368;6.782;2023-04-22T01:23:45;7.70;;;7.00;;
9256;SDS011;4665;51.368;6.782;2023-04-22T01:26:11;8.23;;;7.43;;
9256;SDS011;4665;51.368;6.782;2023-04-22T01:28:37;9.00;;;8.10;;
9256;SDS011;4665;51.368;6.782;2023-04-22T01:31:02;7.80;;;7.03;;
9256;SDS011;4665;51.368;6.782;2023-04-22T01:33:28;6.97;;;6.37;;
9256;SDS011;4665;51.368;6.782;2023-04-22T01:35:54;8.23;;;7.43;;
9256;SDS011;4665;51.368;6.782;2023-04-22T01:38:20;7.53;;;6.83;;
9256;SDS011;4665;51.368;6.782;2023-04-22T01:40:45;9.30;;;8.40;;
9256;SDS011;4665;51.368;6.782;2023-04-22T01:43:10;8.77;;;7.57;;
9256;SDS011;4665;51.368;6.782;2023-04-22T01:45:36;8.07;;;7.33;;
9256;SDS011;4665;51.368;6.782;2023-04-22T01:48:03;9.20;;;8.27;;
9256;SDS011;4665;51.368;6.782;2023-04-22T01:50:30;7.57;;;6.93;;
9256;SDS011;4665;51.368;6.782;2023-04-22T01:52:56;8.53;;;7.73;;
9256;SDS011;4665;51.368;6.782;2023-04-22T01:55:25;7.83;;;7.03;;
9256;SDS011;4665;51.368;6.782;2023-04-22T01:57:50;7.03;;;6.43;;
9256;SDS011;4665;51.368;6.782;2023-04-22T02:00:16;7.20;;;6.50;;
9256;SDS011;4665;51.368;6.782;2023-04-22T02:02:42;8.50;;;7.10;;
9256;SDS011;4665;51.368;6.782;2023-04-22T02:05:07;8.40;;;7.27;;
9256;SDS011;4665;51.368;6.782;2023-04-22T02:07:33;7.40;;;6.70;;
9256;SDS011;4665;51.368;6.782;2023-04-22T02:10:00;7.40;;;6.60;;
9256;SDS011;4665;51.368;6.782;2023-04-22T02:12:26;7.90;;;7.13;;
9256;SDS011;4665;51.368;6.782;2023-04-22T02:14:52;7.10;;;6.47;;
9256;SDS011;4665;51.368;6.782;2023-04-22T02:17:17;8.00;;;7.23;;
9256;SDS011;4665;51.368;6.782;2023-04-22T02:19:43;6.47;;;5.87;;
9256;SDS011;4665;51.368;6.782;2023-04-22T02:22:08;8.00;;;7.20;;
9256;SDS011;4665;51.368;6.782;2023-04-22T02:24:34;8.30;;;7.47;;
9256;SDS011;4665;51.368;6.782;2023-04-22T02:26:59;7.50;;;6.80;;
9256;SDS011;4665;51.368;6.782;2023-04-22T02:29:25;7.30;;;6.43;;
9256;SDS011;4665;51.368;6.782;2023-04-22T02:31:51;7.63;;;6.93;;
9256;SDS011;4665;51.368;6.782;2023-04-22T02:34:16;7.87;;;7.07;;
9256;SDS011;4665;51.368;6.782;2023-04-22T02:36:42;7.50;;;6.80;;
9256;SDS011;4665;51.368;6.782;2023-04-22T02:39:07;8.03;;;7.23;;
9256;SDS011;4665;51.368;6.782;2023-04-22T02:41:33;7.30;;;6.33;;
9256;SDS011;4665;51.368;6.782;2023-04-22T02:43:58;6.67;;;5.97;;
9256;SDS011;4665;51.368;6.782;2023-04-22T02:46:23;7.87;;;7.07;;
9256;SDS011;4665;51.368;6.782;2023-04-22T02:48:49;6.97;;;6.27;;
9256;SDS011;4665;51.368;6.782;2023-04-22T02:51:14;6.20;;;5.60;;
9256;SDS011;4665;51.368;6.782;2023-04-22T02:53:40;6.90;;;6.30;;
9256;SDS011;4665;51.368;6.782;2023-04-22T02:56:05;5.87;;;5.37;;
9256;SDS011;4665;51.368;6.782;2023-04-22T02:58:32;6.10;;;5.57;;
9256;SDS011;4665;51.368;6.782;2023-04-22T03:03:32;6.97;;;6.27;;
9256;SDS011;4665;51.368;6.782;2023-04-22T03:05:58;6.83;;;6.23;;
9256;SDS011;4665;51.368;6.782;2023-04-22T03:08:24;6.97;;;6.37;;
9256;SDS011;4665;51.368;6.782;2023-04-22T03:10:49;6.50;;;5.90;;
9256;SDS011;4665;51.368;6.782;2023-04-22T03:13:15;6.90;;;6.20;;
9256;SDS011;4665;51.368;6.782;2023-04-22T03:15:40;7.83;;;5.50;;
9256;SDS011;4665;51.368;6.782;2023-04-22T03:18:06;5.93;;;5.43;;
9256;SDS011;4665;51.368;6.782;2023-04-22T03:20:32;6.07;;;5.33;;
9256;SDS011;4665;51.368;6.782;2023-04-22T03:22:57;6.47;;;5.93;;
9256;SDS011;4665;51.368;6.782;2023-04-22T03:25:23;5.30;;;4.90;;
9256;SDS011;4665;51.368;6.782;2023-04-22T03:27:48;6.13;;;5.20;;
9256;SDS011;4665;51.368;6.782;2023-04-22T03:30:14;6.07;;;5.47;;
9256;SDS011;4665;51.368;6.782;2023-04-22T03:32:39;5.40;;;4.90;;
9256;SDS011;4665;51.368;6.782;2023-04-22T03:35:06;5.93;;;5.33;;
9256;SDS011;4665;51.368;6.782;2023-04-22T03:37:32;5.70;;;5.20;;
9256;SDS011;4665;51.368;6.782;2023-04-22T03:39:57;6.07;;;5.07;;
9256;SDS011;4665;51.368;6.782;2023-04-22T03:42:23;5.10;;;4.60;;
9256;SDS011;4665;51.368;6.782;2023-04-22T03:44:48;5.77;;;5.27;;
9256;SDS011;4665;51.368;6.782;2023-04-22T03:47:13;5.23;;;4.83;;
9256;SDS011;4665;51.368;6.782;2023-04-22T03:49:39;5.50;;;5.00;;
9256;SDS011;4665;51.368;6.782;2023-04-22T03:52:04;5.10;;;4.60;;
9256;SDS011;4665;51.368;6.782;2023-04-22T03:54:30;5.43;;;5.03;;
9256;SDS011;4665;51.368;6.782;2023-04-22T03:56:55;5.67;;;5.17;;
9256;SDS011;4665;51.368;6.782;2023-04-22T03:59:22;5.70;;;5.10;;
9256;SDS011;4665;51.368;6.782;2023-04-22T04:01:49;6.43;;;5.83;;
9256;SDS011;4665;51.368;6.782;2023-04-22T04:04:15;4.77;;;4.37;;
9256;SDS011;4665;51.368;6.782;2023-04-22T04:06:41;5.40;;;4.90;;
9256;SDS011;4665;51.368;6.782;2023-04-22T04:09:06;5.67;;;5.17;;
9256;SDS011;4665;51.368;6.782;2023-04-22T04:11:32;5.03;;;4.53;;
9256;SDS011;4665;51.368;6.782;2023-04-22T04:13:57;5.90;;;5.30;;
9256;SDS011;4665;51.368;6.782;2023-04-22T04:16:22;4.90;;;4.50;;
9256;SDS011;4665;51.368;6.782;2023-04-22T04:18:49;4.80;;;4.40;;
9256;SDS011;4665;51.368;6.782;2023-04-22T04:21:15;5.43;;;4.93;;
9256;SDS011;4665;51.368;6.782;2023-04-22T04:23:41;6.83;;;6.10;;
9256;SDS011;4665;51.368;6.782;2023-04-22T04:26:06;5.90;;;5.40;;
9256;SDS011;4665;51.368;6.782;2023-04-22T04:28:32;5.83;;;5.33;;
9256;SDS011;4665;51.368;6.782;2023-04-22T04:30:59;5.80;;;5.30;;
9256;SDS011;4665;51.368;6.782;2023-04-22T04:33:26;6.83;;;5.50;;
9256;SDS011;4665;51.368;6.782;2023-04-22T04:35:52;5.97;;;5.47;;
9256;SDS011;4665;51.368;6.782;2023-04-22T04:38:18;5.57;;;5.07;;
9256;SDS011;4665;51.368;6.782;2023-04-22T04:40:43;5.23;;;4.80;;
9256;SDS011;4665;51.368;6.782;2023-04-22T04:43:09;5.70;;;5.20;;
9256;SDS011;4665;51.368;6.782;2023-04-22T04:45:37;5.40;;;4.90;;
9256;SDS011;4665;51.368;6.782;2023-04-22T04:48:03;5.40;;;4.90;;
9256;SDS011;4665;51.368;6.782;2023-04-22T04:50:31;5.13;;;4.70;;
9256;SDS011;4665;51.368;6.782;2023-04-22T04:52:57;5.17;;;4.73;;
9256;SDS011;4665;51.368;6.782;2023-04-22T04:55:22;5.47;;;4.97;;
9256;SDS011;4665;51.368;6.782;2023-04-22T04:57:48;6.00;;;5.50;;
9256;SDS011;4665;51.368;6.782;2023-04-22T05:00:13;6.33;;;5.73;;
9256;SDS011;4665;51.368;6.782;2023-04-22T05:02:39;5.87;;;5.37;;
9256;SDS011;4665;51.368;6.782;2023-04-22T05:05:06;5.97;;;5.47;;
9256;SDS011;4665;51.368;6.782;2023-04-22T05:07:32;5.00;;;4.60;;
9256;SDS011;4665;51.368;6.782;2023-04-22T05:09:57;5.97;;;5.47;;
9256;SDS011;4665;51.368;6.782;2023-04-22T05:12:24;5.03;;;4.63;;
9256;SDS011;4665;51.368;6.782;2023-04-22T05:14:49;5.53;;;5.03;;
9256;SDS011;4665;51.368;6.782;2023-04-22T05:17:14;6.07;;;5.47;;
9256;SDS011;4665;51.368;6.782;2023-04-22T05:19:40;5.30;;;4.80;;
9256;SDS011;4665;51.368;6.782;2023-04-22T05:22:06;5.70;;;5.20;;
9256;SDS011;4665;51.368;6.782;2023-04-22T05:24:32;5.17;;;4.70;;
9256;SDS011;4665;51.368;6.782;2023-04-22T05:26:57;6.37;;;5.87;;
9256;SDS011;4665;51.368;6.782;2023-04-22T05:29:23;5.03;;;4.70;;
9256;SDS011;4665;51.368;6.782;2023-04-22T05:31:49;5.90;;;5.40;;
9256;SDS011;4665;51.368;6.782;2023-04-22T05:37:10;5.67;;;5.17;;
9256;SDS011;4665;51.368;6.782;2023-04-22T05:39:40;4.93;;;4.43;;
9256;SDS011;4665;51.368;6.782;2023-04-22T05:45:26;4.43;;;4.03;;
9256;SDS011;4665;51.368;6.782;2023-04-22T05:47:52;4.17;;;3.87;;
9256;SDS011;4665;51.368;6.782;2023-04-22T05:50:17;4.83;;;4.43;;
9256;SDS011;4665;51.368;6.782;2023-04-22T05:52:43;3.90;;;3.60;;
9256;SDS011;4665;51.368;6.782;2023-04-22T05:55:08;3.50;;;3.30;;
9256;SDS011;4665;51.368;6.782;2023-04-22T05:57:36;4.00;;;3.70;;
9256;SDS011;4665;51.368;6.782;2023-04-22T06:00:02;3.73;;;3.43;;
9256;SDS011;4665;51.368;6.782;2023-04-22T06:02:28;3.50;;;3.20;;
9256;SDS011;4665;51.368;6.782;2023-04-22T06:04:54;3.47;;;3.17;;
9256;SDS011;4665;51.368;6.782;2023-04-22T06:07:20;3.60;;;3.30;;
9256;SDS011;4665;51.368;6.782;2023-04-22T06:09:45;3.07;;;2.93;;
9256;SDS011;4665;51.368;6.782;2023-04-22T06:12:11;3.27;;;3.07;;
9256;SDS011;4665;51.368;6.782;2023-04-22T06:14:36;3.07;;;2.87;;
9256;SDS011;4665;51.368;6.782;2023-04-22T06:17:02;3.53;;;3.10;;
9256;SDS011;4665;51.368;6.782;2023-04-22T06:19:28;2.90;;;2.70;;
9256;SDS011;4665;51.368;6.782;2023-04-22T06:21:53;2.87;;;2.70;;
9256;SDS011;4665;51.368;6.782;2023-04-22T06:24:20;3.37;;;3.07;;
9256;SDS011;4665;51.368;6.782;2023-04-22T06:26:46;3.00;;;2.80;;
9256;SDS011;4665;51.368;6.782;2023-04-22T06:29:11;2.90;;;2.70;;
9256;SDS011;4665;51.368;6.782;2023-04-22T06:31:37;2.90;;;2.70;;
9256;SDS011;4665;51.368;6.782;2023-04-22T06:34:02;3.10;;;2.90;;
9256;SDS011;4665;51.368;6.782;2023-04-22T06:36:29;2.80;;;2.60;;
9256;SDS011;4665;51.368;6.782;2023-04-22T06:38:56;3.57;;;2.93;;
9256;SDS011;4665;51.368;6.782;2023-04-22T06:41:21;2.93;;;2.73;;
9256;SDS011;4665;51.368;6.782;2023-04-22T06:43:47;3.30;;;3.00;;
9256;SDS011;4665;51.368;6.782;2023-04-22T06:46:14;2.90;;;2.70;;
9256;SDS011;4665;51.368;6.782;2023-04-22T06:48:40;2.50;;;2.40;;
9256;SDS011;4665;51.368;6.782;2023-04-22T06:51:06;2.60;;;2.40;;
9256;SDS011;4665;51.368;6.782;2023-04-22T06:53:31;3.43;;;2.50;;
9256;SDS011;4665;51.368;6.782;2023-04-22T06:55:56;2.60;;;2.40;;
9256;SDS011;4665;51.368;6.782;2023-04-22T06:58:22;2.70;;;2.30;;
9256;SDS011;4665;51.368;6.782;2023-04-22T07:00:47;2.70;;;2.43;;
9256;SDS011;4665;51.368;6.782;2023-04-22T07:03:12;2.07;;;1.97;;
9256;SDS011;4665;51.368;6.782;2023-04-22T07:05:38;2.30;;;2.20;;
9256;SDS011;4665;51.368;6.782;2023-04-22T07:08:04;2.47;;;2.37;;
9256;SDS011;4665;51.368;6.782;2023-04-22T07:10:29;3.47;;;2.30;;
9256;SDS011;4665;51.368;6.782;2023-04-22T07:12:54;2.47;;;2.27;;
9256;SDS011;4665;51.368;6.782;2023-04-22T07:15:20;2.43;;;2.33;;
9256;SDS011;4665;51.368;6.782;2023-04-22T07:17:45;2.30;;;2.20;;
9256;SDS011;4665;51.368;6.782;2023-04-22T07:20:11;2.20;;;2.10;;
9256;SDS011;4665;51.368;6.782;2023-04-22T07:22:36;2.10;;;2.00;;
9256;SDS011;4665;51.368;6.782;2023-04-22T07:25:02;2.30;;;2.10;;
9256;SDS011;4665;51.368;6.782;2023-04-22T07:27:28;2.30;;;2.10;;
9256;SDS011;4665;51.368;6.782;2023-04-22T07:29:53;2.30;;;2.10;;
9256;SDS011;4665;51.368;6.782;2023-04-22T07:32:18;2.30;;;2.20;;
9256;SDS011;4665;51.368;6.782;2023-04-22T07:34:44;2.37;;;2.27;;
9256;SDS011;4665;51.368;6.782;2023-04-22T07:37:09;2.07;;;1.93;;
9256;SDS011;4665;51.368;6.782;2023-04-22T07:39:35;2.17;;;2.03;;
9256;SDS011;4665;51.368;6.782;2023-04-22T07:42:00;2.10;;;2.00;;
9256;SDS011;4665;51.368;6.782;2023-04-22T07:44:26;2.03;;;1.93;;
9256;SDS011;4665;51.368;6.782;2023-04-22T07:46:51;2.10;;;1.90;;
9256;SDS011;4665;51.368;6.782;2023-04-22T07:49:17;2.00;;;1.90;;
9256;SDS011;4665;51.368;6.782;2023-04-22T07:51:44;2.53;;;2.33;;
9256;SDS011;4665;51.368;6.782;2023-04-22T07:54:09;2.10;;;1.90;;
9256;SDS011;4665;51.368;6.782;2023-04-22T07:56:34;2.00;;;1.90;;
9256;SDS011;4665;51.368;6.782;2023-04-22T07:59:00;2.20;;;2.10;;
9256;SDS011;4665;51.368;6.782;2023-04-22T08:01:25;2.80;;;1.97;;
9256;SDS011;4665;51.368;6.782;2023-04-22T08:03:51;2.13;;;2.00;;
9256;SDS011;4665;51.368;6.782;2023-04-22T08:06:16;2.03;;;1.93;;
9256;SDS011;4665;51.368;6.782;2023-04-22T08:08:42;2.00;;;1.90;;
9256;SDS011;4665;51.368;6.782;2023-04-22T08:11:08;3.23;;;2.00;;
9256;SDS011;4665;51.368;6.782;2023-04-22T08:13:33;2.03;;;1.93;;
9256;SDS011;4665;51.368;6.782;2023-04-22T08:15:59;2.53;;;1.80;;
9256;SDS011;4665;51.368;6.782;2023-04-22T08:18:26;2.37;;;2.17;;
9256;SDS011;4665;51.368;6.782;2023-04-22T08:20:52;2.97;;;2.17;;
9256;SDS011;4665;51.368;6.782;2023-04-22T08:23:17;2.70;;;2.23;;
9256;SDS011;4665;51.368;6.782;2023-04-22T08:25:42;2.40;;;2.20;;
9256;SDS011;4665;51.368;6.782;2023-04-22T08:28:08;2.17;;;2.07;;
9256;SDS011;4665;51.368;6.782;2023-04-22T08:30:33;2.33;;;2.13;;
9256;SDS011;4665;51.368;6.782;2023-04-22T08:32:59;5.53;;;1.90;;
9256;SDS011;4665;51.368;6.782;2023-04-22T08:35:24;2.07;;;1.97;;
9256;SDS011;4665;51.368;6.782;2023-04-22T08:37:50;2.40;;;2.20;;
9256;SDS011;4665;51.368;6.782;2023-04-22T08:40:15;1.97;;;1.87;;
9256;SDS011;4665;51.368;6.782;2023-04-22T08:42:40;2.00;;;1.90;;
9256;SDS011;4665;51.368;6.782;2023-04-22T08:45:08;2.47;;;2.20;;
9256;SDS011;4665;51.368;6.782;2023-04-22T08:47:34;2.23;;;2.07;;
9256;SDS011;4665;51.368;6.782;2023-04-22T08:50:01;3.80;;;2.40;;
9256;SDS011;4665;51.368;6.782;2023-04-22T08:52:29;3.80;;;2.27;;
9256;SDS011;4665;51.368;6.782;2023-04-22T08:54:55;2.10;;;2.00;;
9256;SDS011;4665;51.368;6.782;2023-04-22T08:57:20;2.10;;;2.00;;
9256;SDS011;4665;51.368;6.782;2023-04-22T08:59:46;2.10;;;2.00;;
9256;SDS011;4665;51.368;6.782;2023-04-22T09:02:16;2.47;;;2.37;;
9256;SDS011;4665;51.368;6.782;2023-04-22T09:04:48;2.60;;;2.40;;
9256;SDS011;4665;51.368;6.782;2023-04-22T09:07:17;2.60;;;2.40;;
9256;SDS011;4665;51.368;6.782;2023-04-22T09:09:46;3.03;;;2.13;;
9256;SDS011;4665;51.368;6.782;2023-04-22T09:12:12;2.60;;;2.40;;
9256;SDS011;4665;51.368;6.782;2023-04-22T09:14:38;2.23;;;2.13;;
9256;SDS011;4665;51.368;6.782;2023-04-22T09:17:03;2.77;;;1.93;;
9256;SDS011;4665;51.368;6.782;2023-04-22T09:19:29;2.37;;;2.27;;
9256;SDS011;4665;51.368;6.782;2023-04-22T09:21:56;1.97;;;1.87;;
9256;SDS011;4665;51.368;6.782;2023-04-22T09:24:22;2.60;;;2.40;;
9256;SDS011;4665;51.368;6.782;2023-04-22T09:26:48;3.00;;;2.50;;
9256;SDS011;4665;51.368;6.782;2023-04-22T09:29:14;2.20;;;2.10;;
9256;SDS011;4665;51.368;6.782;2023-04-22T09:31:40;3.43;;;2.30;;
9256;SDS011;4665;51.368;6.782;2023-04-22T09:34:06;5.40;;;2.27;;
9256;SDS011;4665;51.368;6.782;2023-04-22T09:36:31;2.30;;;2.10;;
9256;SDS011;4665;51.368;6.782;2023-04-22T09:39:04;2.10;;;2.00;;
9256;SDS011;4665;51.368;6.782;2023-04-22T09:43:59;2.07;;;1.90;;
9256;SDS011;4665;51.368;6.782;2023-04-22T09:46:27;2.17;;;2.00;;
9256;SDS011;4665;51.368;6.782;2023-04-22T09:48:54;2.13;;;2.03;;
9256;SDS011;4665;51.368;6.782;2023-04-22T09:51:20;2.60;;;2.40;;
9256;SDS011;4665;51.368;6.782;2023-04-22T09:54:05;2.20;;;2.10;;
9256;SDS011;4665;51.368;6.782;2023-04-22T09:56:45;2.77;;;2.33;;
9256;SDS011;4665;51.368;6.782;2023-04-22T09:59:18;2.50;;;2.27;;
9256;SDS011;4665;51.368;6.782;2023-04-22T10:01:45;2.73;;;2.30;;
9256;SDS011;4665;51.368;6.782;2023-04-22T10:04:10;2.53;;;2.33;;
9256;SDS011;4665;51.368;6.782;2023-04-22T10:06:37;2.37;;;2.17;;
9256;SDS011;4665;51.368;6.782;2023-04-22T10:09:03;2.10;;;2.00;;
9256;SDS011;4665;51.368;6.782;2023-04-22T10:11:29;2.80;;;2.60;;
9256;SDS011;4665;51.368;6.782;2023-04-22T10:13:56;2.57;;;2.37;;
9256;SDS011;4665;51.368;6.782;2023-04-22T10:16:22;2.67;;;2.43;;
9256;SDS011;4665;51.368;6.782;2023-04-22T10:18:50;2.77;;;2.50;;
9256;SDS011;4665;51.368;6.782;2023-04-22T10:21:18;2.37;;;2.17;;
9256;SDS011;4665;51.368;6.782;2023-04-22T10:23:47;2.43;;;2.23;;
9256;SDS011;4665;51.368;6.782;2023-04-22T10:26:37;2.43;;;2.20;;
9256;SDS011;4665;51.368;6.782;2023-04-22T10:29:16;2.73;;;2.57;;
9256;SDS011;4665;51.368;6.782;2023-04-22T10:32:02;2.27;;;2.17;;
9256;SDS011;4665;51.368;6.782;2023-04-22T10:34:30;3.97;;;2.53;;
9256;SDS011;4665;51.368;6.782;2023-04-22T10:37:06;3.20;;;3.00;;
9256;SDS011;4665;51.368;6.782;2023-04-22T10:39:33;2.83;;;2.70;;
9256;SDS011;4665;51.368;6.782;2023-04-22T10:44:28;2.57;;;2.47;;
9256;SDS011;4665;51.368;6.782;2023-04-22T10:47:08;3.10;;;2.63;;
9256;SDS011;4665;51.368;6.782;2023-04-22T10:49:34;2.73;;;2.53;;
9256;SDS011;4665;51.368;6.782;2023-04-22T10:52:00;2.53;;;2.33;;
9256;SDS011;4665;51.368;6.782;2023-04-22T10:59:44;2.63;;;2.43;;
9256;SDS011;4665;51.368;6.782;2023-04-22T11:02:10;2.30;;;2.20;;
9256;SDS011;4665;51.368;6.782;2023-04-22T11:04:38;2.17;;;2.00;;
9256;SDS011;4665;51.368;6.782;2023-04-22T11:09:45;2.63;;;2.07;;
9256;SDS011;4665;51.368;6.782;2023-04-22T11:15:11;5.33;;;2.10;;
9256;SDS011;4665;51.368;6.782;2023-04-22T11:17:44;2.20;;;2.00;;
9256;SDS011;4665;51.368;6.782;2023-04-22T11:20:12;2.50;;;2.30;;
9256;SDS011;4665;51.368;6.782;2023-04-22T11:22:42;2.33;;;2.13;;
9256;SDS011;4665;51.368;6.782;2023-04-22T11:25:10;2.77;;;2.50;;
9256;SDS011;4665;51.368;6.782;2023-04-22T11:27:36;2.90;;;2.20;;
9256;SDS011;4665;51.368;6.782;2023-04-22T11:32:28;2.87;;;2.40;;
9256;SDS011;4665;51.368;6.782;2023-04-22T11:34:55;4.07;;;2.30;;
9256;SDS011;4665;51.368;6.782;2023-04-22T11:37:21;2.30;;;2.20;;
9256;SDS011;4665;51.368;6.782;2023-04-22T11:39:47;2.17;;;2.07;;
9256;SDS011;4665;51.368;6.782;2023-04-22T11:42:12;2.63;;;2.43;;
9256;SDS011;4665;51.368;6.782;2023-04-22T11:44:38;2.47;;;2.00;;
9256;SDS011;4665;51.368;6.782;2023-04-22T11:47:04;2.50;;;2.30;;
9256;SDS011;4665;51.368;6.782;2023-04-22T11:49:29;2.73;;;2.40;;
9256;SDS011;4665;51.368;6.782;2023-04-22T11:51:57;3.53;;;2.30;;
9256;SDS011;4665;51.368;6.782;2023-04-22T11:54:32;2.30;;;2.03;;
9256;SDS011;4665;51.368;6.782;2023-04-22T11:59:32;4.80;;;2.47;;
9256;SDS011;4665;51.368;6.782;2023-04-22T12:01:58;2.37;;;2.17;;
9256;SDS011;4665;51.368;6.782;2023-04-22T12:04:24;4.80;;;2.30;;
9256;SDS011;4665;51.368;6.782;2023-04-22T12:06:52;2.47;;;2.10;;
9256;SDS011;4665;51.368;6.782;2023-04-22T12:09:17;4.43;;;2.30;;
9256;SDS011;4665;51.368;6.782;2023-04-22T12:11:43;3.80;;;2.67;;
9256;SDS011;4665;51.368;6.782;2023-04-22T12:14:10;2.73;;;2.43;;
9256;SDS011;4665;51.368;6.782;2023-04-22T12:16:39;4.03;;;2.47;;
9256;SDS011;4665;51.368;6.782;2023-04-22T12:19:05;3.07;;;2.50;;
9256;SDS011;4665;51.368;6.782;2023-04-22T12:21:31;2.60;;;2.40;;
9256;SDS011;4665;51.368;6.782;2023-04-22T12:23:58;2.53;;;2.37;;
9256;SDS011;4665;51.368;6.782;2023-04-22T12:26:25;4.20;;;2.00;;
9256;SDS011;4665;51.368;6.782;2023-04-22T12:28:51;2.63;;;2.50;;
9256;SDS011;4665;51.368;6.782;2023-04-22T12:31:17;4.13;;;2.70;;
9256;SDS011;4665;51.368;6.782;2023-04-22T12:33:43;3.00;;;2.70;;
9256;SDS011;4665;51.368;6.782;2023-04-22T12:36:10;5.20;;;2.60;;
9256;SDS011;4665;51.368;6.782;2023-04-22T12:38:35;3.73;;;2.30;;
9256;SDS011;4665;51.368;6.782;2023-04-22T12:41:03;5.63;;;2.73;;
9256;SDS011;4665;51.368;6.782;2023-04-22T12:43:30;4.60;;;3.20;;
9256;SDS011;4665;51.368;6.782;2023-04-22T12:45:59;4.20;;;2.40;;
9256;SDS011;4665;51.368;6.782;2023-04-22T12:48:24;2.70;;;2.50;;
9256;SDS011;4665;51.368;6.782;2023-04-22T12:50:50;2.27;;;2.17;;
9256;SDS011;4665;51.368;6.782;2023-04-22T12:53:15;3.83;;;2.87;;
9256;SDS011;4665;51.368;6.782;2023-04-22T12:55:41;7.17;;;2.37;;
9256;SDS011;4665;51.368;6.782;2023-04-22T12:58:06;3.53;;;2.60;;
9256;SDS011;4665;51.368;6.782;2023-04-22T13:00:32;3.80;;;2.70;;
9256;SDS011;4665;51.368;6.782;2023-04-22T13:02:57;2.67;;;2.47;;
9256;SDS011;4665;51.368;6.782;2023-04-22T13:05:23;5.70;;;2.77;;
9256;SDS011;4665;51.368;6.782;2023-04-22T13:07:49;6.63;;;3.37;;
9256;SDS011;4665;51.368;6.782;2023-04-22T13:10:14;6.97;;;2.73;;
9256;SDS011;4665;51.368;6.782;2023-04-22T13:12:41;3.80;;;2.70;;
9256;SDS011;4665;51.368;6.782;2023-04-22T13:15:08;2.60;;;2.33;;
9256;SDS011;4665;51.368;6.782;2023-04-22T13:17:34;2.60;;;2.40;;
9256;SDS011;4665;51.368;6.782;2023-04-22T13:20:00;3.60;;;2.50;;
9256;SDS011;4665;51.368;6.782;2023-04-22T13:22:28;2.97;;;2.67;;
9256;SDS011;4665;51.368;6.782;2023-04-22T13:24:53;4.13;;;2.70;;
9256;SDS011;4665;51.368;6.782;2023-04-22T13:27:19;3.43;;;2.73;;
9256;SDS011;4665;51.368;6.782;2023-04-22T13:29:44;4.33;;;2.63;;
9256;SDS011;4665;51.368;6.782;2023-04-22T13:32:10;3.00;;;2.70;;
9256;SDS011;4665;51.368;6.782;2023-04-22T13:34:37;2.33;;;2.20;;
9256;SDS011;4665;51.368;6.782;2023-04-22T13:37:03;3.03;;;2.43;;
9256;SDS011;4665;51.368;6.782;2023-04-22T13:39:29;3.83;;;2.70;;
9256;SDS011;4665;51.368;6.782;2023-04-22T13:41:55;4.67;;;2.90;;
9256;SDS011;4665;51.368;6.782;2023-04-22T13:44:21;3.40;;;3.10;;
9256;SDS011;4665;51.368;6.782;2023-04-22T13:46:46;4.47;;;3.43;;
9256;SDS011;4665;51.368;6.782;2023-04-22T13:49:11;4.90;;;3.03;;
9256;SDS011;4665;51.368;6.782;2023-04-22T13:51:37;4.80;;;3.37;;
9256;SDS011;4665;51.368;6.782;2023-04-22T13:54:03;3.83;;;2.87;;
9256;SDS011;4665;51.368;6.782;2023-04-22T13:56:29;3.97;;;2.90;;
9256;SDS011;4665;51.368;6.782;2023-04-22T13:58:55;3.40;;;3.10;;
9256;SDS011;4665;51.368;6.782;2023-04-22T14:01:20;3.73;;;2.77;;
9256;SDS011;4665;51.368;6.782;2023-04-22T14:03:46;3.63;;;2.80;;
9256;SDS011;4665;51.368;6.782;2023-04-22T14:06:13;2.70;;;2.60;;
9256;SDS011;4665;51.368;6.782;2023-04-22T14:08:38;2.77;;;2.57;;
9256;SDS011;4665;51.368;6.782;2023-04-22T14:11:04;2.90;;;2.70;;
9256;SDS011;4665;51.368;6.782;2023-04-22T14:13:31;3.47;;;2.77;;
9256;SDS011;4665;51.368;6.782;2023-04-22T14:15:56;4.10;;;2.53;;
9256;SDS011;4665;51.368;6.782;2023-04-22T14:18:22;3.33;;;3.03;;
9256;SDS011;4665;51.368;6.782;2023-04-22T14:20:48;5.40;;;3.10;;
9256;SDS011;4665;51.368;6.782;2023-04-22T14:23:15;3.47;;;3.17;;
9256;SDS011;4665;51.368;6.782;2023-04-22T14:25:42;4.67;;;3.00;;
9256;SDS011;4665;51.368;6.782;2023-04-22T14:28:11;2.83;;;2.50;;
9256;SDS011;4665;51.368;6.782;2023-04-22T14:30:37;2.40;;;2.20;;
9256;SDS011;4665;51.368;6.782;2023-04-22T14:33:03;3.57;;;2.60;;
9256;SDS011;4665;51.368;6.782;2023-04-22T14:35:34;3.90;;;2.80;;
9256;SDS011;4665;51.368;6.782;2023-04-22T14:38:02;4.13;;;2.90;;
9256;SDS011;4665;51.368;6.782;2023-04-22T14:40:29;3.33;;;3.13;;
9256;SDS011;4665;51.368;6.782;2023-04-22T14:42:55;7.63;;;3.60;;
9256;SDS011;4665;51.368;6.782;2023-04-22T14:45:24;2.70;;;2.50;;
9256;SDS011;4665;51.368;6.782;2023-04-22T14:47:52;2.90;;;2.70;;
9256;SDS011;4665;51.368;6.782;2023-04-22T14:50:17;2.90;;;2.80;;
9256;SDS011;4665;51.368;6.782;2023-04-22T14:52:44;2.83;;;2.63;;
9256;SDS011;4665;51.368;6.782;2023-04-22T14:55:09;2.70;;;2.50;;
9256;SDS011;4665;51.368;6.782;2023-04-22T14:57:35;2.97;;;2.70;;
9256;SDS011;4665;51.368;6.782;2023-04-22T15:00:00;4.43;;;2.70;;
9256;SDS011;4665;51.368;6.782;2023-04-22T15:02:25;4.30;;;2.40;;
9256;SDS011;4665;51.368;6.782;2023-04-22T15:04:51;2.60;;;2.40;;
9256;SDS011;4665;51.368;6.782;2023-04-22T15:07:16;5.67;;;2.83;;
9256;SDS011;4665;51.368;6.782;2023-04-22T15:09:42;3.97;;;2.97;;
9256;SDS011;4665;51.368;6.782;2023-04-22T15:12:07;3.70;;;3.07;;
9256;SDS011;4665;51.368;6.782;2023-04-22T15:14:33;4.40;;;3.13;;
9256;SDS011;4665;51.368;6.782;2023-04-22T15:17:02;2.93;;;2.73;;
9256;SDS011;4665;51.368;6.782;2023-04-22T15:19:27;3.57;;;2.93;;
9256;SDS011;4665;51.368;6.782;2023-04-22T15:21:53;3.40;;;3.03;;
9256;SDS011;4665;51.368;6.782;2023-04-22T15:24:18;3.00;;;2.70;;
9256;SDS011;4665;51.368;6.782;2023-04-22T15:26:44;4.40;;;2.70;;
9256;SDS011;4665;51.368;6.782;2023-04-22T15:29:10;4.23;;;2.60;;
9256;SDS011;4665;51.368;6.782;2023-04-22T15:31:36;3.00;;;2.70;;
9256;SDS011;4665;51.368;6.782;2023-04-22T15:34:02;3.30;;;3.00;;
9256;SDS011;4665;51.368;6.782;2023-04-22T15:36:27;2.87;;;2.60;;
9256;SDS011;4665;51.368;6.782;2023-04-22T15:38:53;2.93;;;2.60;;